sensor_id;sensor_type;location;lat;lon;timestamp;temperature;humidity
18365;DHT22;9309;52.126;11.616;2023-12-20T00:00:21;6.20;98.40
18365;DHT22;9309;52.126;11.616;2023-12-20T00:02:49;6.30;98.40
18365;DHT22;9309;52.126;11.616;2023-12-20T00:05:16;6.30;98.10
18365;DHT22;9309;52.126;11.616;2023-12-20T00:07:43;6.20;97.70
18365;DHT22;9309;52.126;11.616;2023-12-20T00:10:09;6.20;97.80
18365;DHT22;9309;52.126;11.616;2023-12-20T00:12:38;6.20;97.60
18365;DHT22;9309;52.126;11.616;2023-12-20T00:15:06;6.20;97.70
18365;DHT22;9309;52.126;11.616;2023-12-20T00:17:33;6.20;97.60
18365;DHT22;9309;52.126;11.616;2023-12-20T00:20:01;6.20;97.70
18365;DHT22;9309;52.126;11.616;2023-12-20T00:22:28;6.20;97.60
18365;DHT22;9309;52.126;11.616;2023-12-20T00:24:54;6.20;97.60
18365;DHT22;9309;52.126;11.616;2023-12-20T00:27:21;6.20;97.50
18365;DHT22;9309;52.126;11.616;2023-12-20T00:29:48;6.20;97.20
18365;DHT22;9309;52.126;11.616;2023-12-20T00:32:15;6.30;97.30
18365;DHT22;9309;52.126;11.616;2023-12-20T00:34:43;6.30;97.10
18365;DHT22;9309;52.126;11.616;2023-12-20T00:37:11;6.30;97.20
18365;DHT22;9309;52.126;11.616;2023-12-20T00:39:37;6.30;97.20
18365;DHT22;9309;52.126;11.616;2023-12-20T00:42:04;6.30;97.00
18365;DHT22;9309;52.126;11.616;2023-12-20T00:44:31;6.30;96.50
18365;DHT22;9309;52.126;11.616;2023-12-20T00:46:57;6.40;96.70
18365;DHT22;9309;52.126;11.616;2023-12-20T00:49:24;6.40;96.80
18365;DHT22;9309;52.126;11.616;2023-12-20T00:51:51;6.40;96.50
18365;DHT22;9309;52.126;11.616;2023-12-20T00:54:19;6.40;96.50
18365;DHT22;9309;52.126;11.616;2023-12-20T00:56:46;6.40;96.50
18365;DHT22;9309;52.126;11.616;2023-12-20T00:59:12;6.40;96.30
18365;DHT22;9309;52.126;11.616;2023-12-20T01:01:40;6.50;96.60
18365;DHT22;9309;52.126;11.616;2023-12-20T01:04:07;6.50;96.20
18365;DHT22;9309;52.126;11.616;2023-12-20T01:06:34;6.40;96.10
18365;DHT22;9309;52.126;11.616;2023-12-20T01:09:00;6.50;96.30
18365;DHT22;9309;52.126;11.616;2023-12-20T01:11:29;6.40;96.00
18365;DHT22;9309;52.126;11.616;2023-12-20T01:13:56;6.40;96.10
18365;DHT22;9309;52.126;11.616;2023-12-20T01:16:22;6.40;96.20
18365;DHT22;9309;52.126;11.616;2023-12-20T01:18:49;6.40;96.20
18365;DHT22;9309;52.126;11.616;2023-12-20T01:21:16;6.50;96.10
18365;DHT22;9309;52.126;11.616;2023-12-20T01:23:42;6.40;96.00
18365;DHT22;9309;52.126;11.616;2023-12-20T01:26:09;6.50;96.50
18365;DHT22;9309;52.126;11.616;2023-12-20T01:28:37;6.50;95.80
18365;DHT22;9309;52.126;11.616;2023-12-20T01:31:03;6.50;95.80
18365;DHT22;9309;52.126;11.616;2023-12-20T01:33:30;6.50;95.80
18365;DHT22;9309;52.126;11.616;2023-12-20T01:35:56;6.50;96.10
18365;DHT22;9309;52.126;11.616;2023-12-20T01:38:23;6.50;96.60
18365;DHT22;9309;52.126;11.616;2023-12-20T01:40:49;6.50;96.50
18365;DHT22;9309;52.126;11.616;2023-12-20T01:43:16;6.40;96.70
18365;DHT22;9309;52.126;11.616;2023-12-20T01:45:44;6.40;97.10
18365;DHT22;9309;52.126;11.616;2023-12-20T01:48:10;6.40;97.70
18365;DHT22;9309;52.126;11.616;2023-12-20T01:50:37;6.50;98.20
18365;DHT22;9309;52.126;11.616;2023-12-20T01:53:04;6.50;98.00
18365;DHT22;9309;52.126;11.616;2023-12-20T01:55:32;6.40;98.30
18365;DHT22;9309;52.126;11.616;2023-12-20T01:57:59;6.40;99.00
18365;DHT22;9309;52.126;11.616;2023-12-20T02:00:26;6.30;99.10
18365;DHT22;9309;52.126;11.616;2023-12-20T02:02:54;6.00;97.40
18365;DHT22;9309;52.126;11.616;2023-12-20T02:05:21;5.80;97.00
18365;DHT22;9309;52.126;11.616;2023-12-20T02:07:48;5.80;96.60
18365;DHT22;9309;52.126;11.616;2023-12-20T02:10:14;5.70;96.40
18365;DHT22;9309;52.126;11.616;2023-12-20T02:12:41;5.70;96.60
18365;DHT22;9309;52.126;11.616;2023-12-20T02:15:08;5.70;96.70
18365;DHT22;9309;52.126;11.616;2023-12-20T02:17:35;5.70;96.30
18365;DHT22;9309;52.126;11.616;2023-12-20T02:20:04;5.80;96.50
18365;DHT22;9309;52.126;11.616;2023-12-20T02:22:32;5.80;95.90
18365;DHT22;9309;52.126;11.616;2023-12-20T02:24:58;5.70;96.00
18365;DHT22;9309;52.126;11.616;2023-12-20T02:27:25;5.70;96.00
18365;DHT22;9309;52.126;11.616;2023-12-20T02:29:52;5.70;95.80
18365;DHT22;9309;52.126;11.616;2023-12-20T02:32:18;5.80;96.00
18365;DHT22;9309;52.126;11.616;2023-12-20T02:34:46;5.80;95.70
18365;DHT22;9309;52.126;11.616;2023-12-20T02:37:13;5.80;95.20
18365;DHT22;9309;52.126;11.616;2023-12-20T02:39:40;5.80;94.70
18365;DHT22;9309;52.126;11.616;2023-12-20T02:42:07;5.80;95.20
18365;DHT22;9309;52.126;11.616;2023-12-20T02:44:34;5.80;94.70
18365;DHT22;9309;52.126;11.616;2023-12-20T02:47:01;5.90;94.60
18365;DHT22;9309;52.126;11.616;2023-12-20T02:49:28;5.90;94.60
18365;DHT22;9309;52.126;11.616;2023-12-20T02:51:54;5.90;94.40
18365;DHT22;9309;52.126;11.616;2023-12-20T02:54:21;5.90;94.20
18365;DHT22;9309;52.126;11.616;2023-12-20T02:56:49;5.90;94.20
18365;DHT22;9309;52.126;11.616;2023-12-20T02:59:15;5.90;94.40
18365;DHT22;9309;52.126;11.616;2023-12-20T03:01:42;5.80;94.20
18365;DHT22;9309;52.126;11.616;2023-12-20T03:04:09;5.80;93.80
18365;DHT22;9309;52.126;11.616;2023-12-20T03:06:36;5.70;93.30
18365;DHT22;9309;52.126;11.616;2023-12-20T03:09:02;5.70;92.90
18365;DHT22;9309;52.126;11.616;2023-12-20T03:11:29;5.70;92.40
18365;DHT22;9309;52.126;11.616;2023-12-20T03:13:57;5.80;92.20
18365;DHT22;9309;52.126;11.616;2023-12-20T03:16:24;5.80;92.10
18365;DHT22;9309;52.126;11.616;2023-12-20T03:18:51;5.80;92.40
18365;DHT22;9309;52.126;11.616;2023-12-20T03:21:17;5.80;92.90
18365;DHT22;9309;52.126;11.616;2023-12-20T03:23:44;5.80;93.60
18365;DHT22;9309;52.126;11.616;2023-12-20T03:26:11;5.70;92.90
18365;DHT22;9309;52.126;11.616;2023-12-20T03:28:38;5.70;93.30
18365;DHT22;9309;52.126;11.616;2023-12-20T03:31:05;5.70;92.90
18365;DHT22;9309;52.126;11.616;2023-12-20T03:33:32;5.70;93.30
18365;DHT22;9309;52.126;11.616;2023-12-20T03:35:58;5.60;93.10
18365;DHT22;9309;52.126;11.616;2023-12-20T03:38:25;5.60;93.30
18365;DHT22;9309;52.126;11.616;2023-12-20T03:40:51;5.50;93.10
18365;DHT22;9309;52.126;11.616;2023-12-20T03:43:18;5.50;93.10
18365;DHT22;9309;52.126;11.616;2023-12-20T03:45:44;5.60;93.50
18365;DHT22;9309;52.126;11.616;2023-12-20T03:48:12;5.60;93.50
18365;DHT22;9309;52.126;11.616;2023-12-20T03:50:39;5.60;93.60
18365;DHT22;9309;52.126;11.616;2023-12-20T03:53:06;5.60;93.40
18365;DHT22;9309;52.126;11.616;2023-12-20T03:55:32;5.50;93.40
18365;DHT22;9309;52.126;11.616;2023-12-20T03:57:59;5.40;92.80
18365;DHT22;9309;52.126;11.616;2023-12-20T04:00:25;5.40;92.70
18365;DHT22;9309;52.126;11.616;2023-12-20T04:02:52;5.40;91.80
18365;DHT22;9309;52.126;11.616;2023-12-20T04:05:19;5.40;91.10
18365;DHT22;9309;52.126;11.616;2023-12-20T04:07:46;5.40;91.20
18365;DHT22;9309;52.126;11.616;2023-12-20T04:10:12;5.30;91.00
18365;DHT22;9309;52.126;11.616;2023-12-20T04:12:39;5.30;90.70
18365;DHT22;9309;52.126;11.616;2023-12-20T04:15:06;5.30;90.70
18365;DHT22;9309;52.126;11.616;2023-12-20T04:17:34;5.30;90.70
18365;DHT22;9309;52.126;11.616;2023-12-20T04:20:01;5.30;90.60
18365;DHT22;9309;52.126;11.616;2023-12-20T04:22:29;5.30;90.60
18365;DHT22;9309;52.126;11.616;2023-12-20T04:24:56;5.30;90.20
18365;DHT22;9309;52.126;11.616;2023-12-20T04:27:22;5.30;90.20
18365;DHT22;9309;52.126;11.616;2023-12-20T04:29:49;5.20;90.20
18365;DHT22;9309;52.126;11.616;2023-12-20T04:32:15;5.20;89.90
18365;DHT22;9309;52.126;11.616;2023-12-20T04:34:42;5.20;89.60
18365;DHT22;9309;52.126;11.616;2023-12-20T04:37:08;5.10;89.90
18365;DHT22;9309;52.126;11.616;2023-12-20T04:39:36;5.20;89.70
18365;DHT22;9309;52.126;11.616;2023-12-20T04:42:03;5.20;89.40
18365;DHT22;9309;52.126;11.616;2023-12-20T04:44:29;5.20;89.10
18365;DHT22;9309;52.126;11.616;2023-12-20T04:46:56;5.20;89.20
18365;DHT22;9309;52.126;11.616;2023-12-20T04:49:22;5.30;89.00
18365;DHT22;9309;52.126;11.616;2023-12-20T04:51:49;5.30;88.40
18365;DHT22;9309;52.126;11.616;2023-12-20T04:54:15;5.30;88.50
18365;DHT22;9309;52.126;11.616;2023-12-20T04:56:43;5.20;88.10
18365;DHT22;9309;52.126;11.616;2023-12-20T04:59:10;5.20;88.20
18365;DHT22;9309;52.126;11.616;2023-12-20T05:01:36;5.10;88.40
18365;DHT22;9309;52.126;11.616;2023-12-20T05:04:03;5.10;88.60
18365;DHT22;9309;52.126;11.616;2023-12-20T05:06:30;5.00;89.30
18365;DHT22;9309;52.126;11.616;2023-12-20T05:08:56;4.90;89.30
18365;DHT22;9309;52.126;11.616;2023-12-20T05:11:23;4.90;89.50
18365;DHT22;9309;52.126;11.616;2023-12-20T05:13:50;4.90;89.10
18365;DHT22;9309;52.126;11.616;2023-12-20T05:16:17;4.80;89.30
18365;DHT22;9309;52.126;11.616;2023-12-20T05:18:44;4.90;89.30
18365;DHT22;9309;52.126;11.616;2023-12-20T05:21:11;4.90;89.40
18365;DHT22;9309;52.126;11.616;2023-12-20T05:23:38;4.80;89.30
18365;DHT22;9309;52.126;11.616;2023-12-20T05:26:04;4.80;89.70
18365;DHT22;9309;52.126;11.616;2023-12-20T05:28:31;4.70;90.00
18365;DHT22;9309;52.126;11.616;2023-12-20T05:30:59;4.80;90.00
18365;DHT22;9309;52.126;11.616;2023-12-20T05:33:26;4.70;90.20
18365;DHT22;9309;52.126;11.616;2023-12-20T05:35:52;4.70;90.30
18365;DHT22;9309;52.126;11.616;2023-12-20T05:38:19;4.80;90.30
18365;DHT22;9309;52.126;11.616;2023-12-20T05:40:45;4.80;90.20
18365;DHT22;9309;52.126;11.616;2023-12-20T05:43:12;4.90;90.10
18365;DHT22;9309;52.126;11.616;2023-12-20T05:45:38;4.90;89.90
18365;DHT22;9309;52.126;11.616;2023-12-20T05:48:06;4.90;90.20
18365;DHT22;9309;52.126;11.616;2023-12-20T05:50:33;4.90;90.00
18365;DHT22;9309;52.126;11.616;2023-12-20T05:53:00;4.90;89.80
18365;DHT22;9309;52.126;11.616;2023-12-20T05:55:26;5.00;89.30
18365;DHT22;9309;52.126;11.616;2023-12-20T05:57:53;5.10;88.70
18365;DHT22;9309;52.126;11.616;2023-12-20T06:00:19;5.20;88.30
18365;DHT22;9309;52.126;11.616;2023-12-20T06:02:46;5.30;87.80
18365;DHT22;9309;52.126;11.616;2023-12-20T06:05:14;5.40;87.10
18365;DHT22;9309;52.126;11.616;2023-12-20T06:07:40;5.40;87.30
18365;DHT22;9309;52.126;11.616;2023-12-20T06:10:07;5.40;87.00
18365;DHT22;9309;52.126;11.616;2023-12-20T06:12:34;5.30;86.90
18365;DHT22;9309;52.126;11.616;2023-12-20T06:15:01;5.40;86.60
18365;DHT22;9309;52.126;11.616;2023-12-20T06:17:28;5.40;86.20
18365;DHT22;9309;52.126;11.616;2023-12-20T06:19:56;5.40;85.80
18365;DHT22;9309;52.126;11.616;2023-12-20T06:22:24;5.40;86.10
18365;DHT22;9309;52.126;11.616;2023-12-20T06:24:50;5.50;85.90
18365;DHT22;9309;52.126;11.616;2023-12-20T06:27:17;5.50;85.50
18365;DHT22;9309;52.126;11.616;2023-12-20T06:29:43;5.50;85.70
18365;DHT22;9309;52.126;11.616;2023-12-20T06:32:10;5.50;85.10
18365;DHT22;9309;52.126;11.616;2023-12-20T06:34:36;5.60;84.80
18365;DHT22;9309;52.126;11.616;2023-12-20T06:37:04;5.60;84.70
18365;DHT22;9309;52.126;11.616;2023-12-20T06:39:32;5.60;84.00
18365;DHT22;9309;52.126;11.616;2023-12-20T06:41:59;5.60;83.80
18365;DHT22;9309;52.126;11.616;2023-12-20T06:44:26;5.60;83.60
18365;DHT22;9309;52.126;11.616;2023-12-20T06:46:52;5.70;83.70
18365;DHT22;9309;52.126;11.616;2023-12-20T06:49:19;5.60;83.70
18365;DHT22;9309;52.126;11.616;2023-12-20T06:51:45;5.50;84.10
18365;DHT22;9309;52.126;11.616;2023-12-20T06:54:12;5.50;84.10
18365;DHT22;9309;52.126;11.616;2023-12-20T06:56:40;5.50;83.70
18365;DHT22;9309;52.126;11.616;2023-12-20T06:59:07;5.60;83.70
18365;DHT22;9309;52.126;11.616;2023-12-20T07:01:34;5.60;83.10
18365;DHT22;9309;52.126;11.616;2023-12-20T07:04:00;5.60;83.10
18365;DHT22;9309;52.126;11.616;2023-12-20T07:06:27;5.70;83.20
18365;DHT22;9309;52.126;11.616;2023-12-20T07:08:53;5.70;82.70
18365;DHT22;9309;52.126;11.616;2023-12-20T07:11:20;5.70;82.50
18365;DHT22;9309;52.126;11.616;2023-12-20T07:13:47;5.80;82.40
18365;DHT22;9309;52.126;11.616;2023-12-20T07:16:15;5.70;82.90
18365;DHT22;9309;52.126;11.616;2023-12-20T07:18:41;5.80;82.50
18365;DHT22;9309;52.126;11.616;2023-12-20T07:21:08;5.80;82.80
18365;DHT22;9309;52.126;11.616;2023-12-20T07:23:34;5.80;83.50
18365;DHT22;9309;52.126;11.616;2023-12-20T07:26:01;5.80;83.50
18365;DHT22;9309;52.126;11.616;2023-12-20T07:28:27;5.80;83.50
18365;DHT22;9309;52.126;11.616;2023-12-20T07:30:55;5.80;83.90
18365;DHT22;9309;52.126;11.616;2023-12-20T07:33:21;5.80;83.50
18365;DHT22;9309;52.126;11.616;2023-12-20T07:35:48;5.90;83.30
18365;DHT22;9309;52.126;11.616;2023-12-20T07:38:17;5.70;84.10
18365;DHT22;9309;52.126;11.616;2023-12-20T07:40:43;5.70;84.30
18365;DHT22;9309;52.126;11.616;2023-12-20T07:43:10;5.80;83.90
18365;DHT22;9309;52.126;11.616;2023-12-20T07:45:36;5.80;83.70
18365;DHT22;9309;52.126;11.616;2023-12-20T07:48:05;5.90;83.60
18365;DHT22;9309;52.126;11.616;2023-12-20T07:50:32;5.90;83.30
18365;DHT22;9309;52.126;11.616;2023-12-20T07:52:59;5.90;83.20
18365;DHT22;9309;52.126;11.616;2023-12-20T07:55:26;6.00;83.30
18365;DHT22;9309;52.126;11.616;2023-12-20T07:57:52;6.00;82.80
18365;DHT22;9309;52.126;11.616;2023-12-20T08:00:19;6.00;82.90
18365;DHT22;9309;52.126;11.616;2023-12-20T08:02:45;6.10;83.00
18365;DHT22;9309;52.126;11.616;2023-12-20T08:05:13;6.10;82.80
18365;DHT22;9309;52.126;11.616;2023-12-20T08:07:40;6.10;82.30
18365;DHT22;9309;52.126;11.616;2023-12-20T08:10:07;6.10;82.40
18365;DHT22;9309;52.126;11.616;2023-12-20T08:12:33;6.10;82.40
18365;DHT22;9309;52.126;11.616;2023-12-20T08:15:01;6.10;82.80
18365;DHT22;9309;52.126;11.616;2023-12-20T08:17:27;6.10;83.10
18365;DHT22;9309;52.126;11.616;2023-12-20T08:19:54;6.20;83.30
18365;DHT22;9309;52.126;11.616;2023-12-20T08:22:22;6.10;83.80
18365;DHT22;9309;52.126;11.616;2023-12-20T08:24:48;6.10;83.60
18365;DHT22;9309;52.126;11.616;2023-12-20T08:27:15;6.10;84.10
18365;DHT22;9309;52.126;11.616;2023-12-20T08:32:09;6.20;83.70
18365;DHT22;9309;52.126;11.616;2023-12-20T08:34:36;6.20;83.40
18365;DHT22;9309;52.126;11.616;2023-12-20T08:37:03;6.20;82.90
18365;DHT22;9309;52.126;11.616;2023-12-20T08:39:31;6.20;83.20
18365;DHT22;9309;52.126;11.616;2023-12-20T08:41:59;6.10;83.20
18365;DHT22;9309;52.126;11.616;2023-12-20T08:44:25;6.10;82.90
18365;DHT22;9309;52.126;11.616;2023-12-20T08:46:52;6.30;82.70
18365;DHT22;9309;52.126;11.616;2023-12-20T08:49:18;6.60;81.20
18365;DHT22;9309;52.126;11.616;2023-12-20T08:51:45;6.90;80.00
18365;DHT22;9309;52.126;11.616;2023-12-20T08:54:11;7.30;78.00
18365;DHT22;9309;52.126;11.616;2023-12-20T08:56:39;7.60;76.60
18365;DHT22;9309;52.126;11.616;2023-12-20T08:59:06;7.70;76.00
18365;DHT22;9309;52.126;11.616;2023-12-20T09:01:33;7.90;75.20
18365;DHT22;9309;52.126;11.616;2023-12-20T09:03:59;7.50;76.20
18365;DHT22;9309;52.126;11.616;2023-12-20T09:06:26;7.00;78.30
18365;DHT22;9309;52.126;11.616;2023-12-20T09:08:52;6.80;79.70
18365;DHT22;9309;52.126;11.616;2023-12-20T09:11:19;6.70;80.70
18365;DHT22;9309;52.126;11.616;2023-12-20T09:13:46;6.80;80.00
18365;DHT22;9309;52.126;11.616;2023-12-20T09:16:13;7.30;78.50
18365;DHT22;9309;52.126;11.616;2023-12-20T09:18:41;7.90;76.50
18365;DHT22;9309;52.126;11.616;2023-12-20T09:21:07;8.40;73.60
18365;DHT22;9309;52.126;11.616;2023-12-20T09:23:34;8.10;73.80
18365;DHT22;9309;52.126;11.616;2023-12-20T09:26:02;7.60;75.40
18365;DHT22;9309;52.126;11.616;2023-12-20T09:28:28;7.20;76.80
18365;DHT22;9309;52.126;11.616;2023-12-20T09:30:56;7.00;77.60
18365;DHT22;9309;52.126;11.616;2023-12-20T09:33:23;6.90;78.30
18365;DHT22;9309;52.126;11.616;2023-12-20T09:35:50;6.90;78.30
18365;DHT22;9309;52.126;11.616;2023-12-20T09:38:16;6.80;78.40
18365;DHT22;9309;52.126;11.616;2023-12-20T09:40:43;7.10;78.20
18365;DHT22;9309;52.126;11.616;2023-12-20T09:43:10;7.30;76.80
18365;DHT22;9309;52.126;11.616;2023-12-20T09:45:37;7.50;75.80
18365;DHT22;9309;52.126;11.616;2023-12-20T09:48:07;7.60;75.90
18365;DHT22;9309;52.126;11.616;2023-12-20T09:50:34;8.10;73.70
18365;DHT22;9309;52.126;11.616;2023-12-20T09:53:01;8.50;71.70
18365;DHT22;9309;52.126;11.616;2023-12-20T09:55:30;8.80;71.20
18365;DHT22;9309;52.126;11.616;2023-12-20T09:57:56;8.70;69.70
18365;DHT22;9309;52.126;11.616;2023-12-20T10:00:23;8.60;71.40
18365;DHT22;9309;52.126;11.616;2023-12-20T10:02:50;8.40;71.40
18365;DHT22;9309;52.126;11.616;2023-12-20T10:05:20;8.20;71.90
18365;DHT22;9309;52.126;11.616;2023-12-20T10:07:52;8.20;71.90
18365;DHT22;9309;52.126;11.616;2023-12-20T10:10:18;7.70;72.90
18365;DHT22;9309;52.126;11.616;2023-12-20T10:13:00;7.70;73.40
18365;DHT22;9309;52.126;11.616;2023-12-20T10:15:27;7.70;73.40
18365;DHT22;9309;52.126;11.616;2023-12-20T10:17:53;8.10;71.90
18365;DHT22;9309;52.126;11.616;2023-12-20T10:20:21;8.60;70.30
18365;DHT22;9309;52.126;11.616;2023-12-20T10:22:49;9.00;69.00
18365;DHT22;9309;52.126;11.616;2023-12-20T10:25:18;9.40;67.70
18365;DHT22;9309;52.126;11.616;2023-12-20T10:27:45;9.30;67.30
18365;DHT22;9309;52.126;11.616;2023-12-20T10:30:12;9.10;67.70
18365;DHT22;9309;52.126;11.616;2023-12-20T10:32:39;8.60;70.10
18365;DHT22;9309;52.126;11.616;2023-12-20T10:35:06;8.20;71.20
18365;DHT22;9309;52.126;11.616;2023-12-20T10:37:35;7.90;72.70
18365;DHT22;9309;52.126;11.616;2023-12-20T10:40:03;7.70;73.50
18365;DHT22;9309;52.126;11.616;2023-12-20T10:42:31;7.50;74.50
18365;DHT22;9309;52.126;11.616;2023-12-20T10:44:59;7.40;75.20
18365;DHT22;9309;52.126;11.616;2023-12-20T10:47:25;7.40;74.90
18365;DHT22;9309;52.126;11.616;2023-12-20T10:49:52;7.30;75.50
18365;DHT22;9309;52.126;11.616;2023-12-20T10:52:19;7.30;75.90
18365;DHT22;9309;52.126;11.616;2023-12-20T10:54:47;7.20;76.10
18365;DHT22;9309;52.126;11.616;2023-12-20T10:57:13;7.20;75.80
18365;DHT22;9309;52.126;11.616;2023-12-20T10:59:41;7.20;76.10
18365;DHT22;9309;52.126;11.616;2023-12-20T11:02:11;7.30;76.00
18365;DHT22;9309;52.126;11.616;2023-12-20T11:04:39;7.30;75.60
18365;DHT22;9309;52.126;11.616;2023-12-20T11:07:24;7.30;75.80
18365;DHT22;9309;52.126;11.616;2023-12-20T11:09:58;7.20;76.00
18365;DHT22;9309;52.126;11.616;2023-12-20T11:12:29;7.40;75.60
18365;DHT22;9309;52.126;11.616;2023-12-20T11:14:58;7.40;75.00
18365;DHT22;9309;52.126;11.616;2023-12-20T11:17:29;7.40;74.90
18365;DHT22;9309;52.126;11.616;2023-12-20T11:20:08;7.40;75.00
18365;DHT22;9309;52.126;11.616;2023-12-20T11:22:37;7.50;74.90
18365;DHT22;9309;52.126;11.616;2023-12-20T11:25:09;7.50;74.80
18365;DHT22;9309;52.126;11.616;2023-12-20T11:27:36;7.50;74.30
18365;DHT22;9309;52.126;11.616;2023-12-20T11:30:06;7.70;74.00
18365;DHT22;9309;52.126;11.616;2023-12-20T11:32:35;7.70;73.80
18365;DHT22;9309;52.126;11.616;2023-12-20T11:35:16;7.60;74.20
18365;DHT22;9309;52.126;11.616;2023-12-20T11:37:43;7.50;74.40
18365;DHT22;9309;52.126;11.616;2023-12-20T11:40:14;7.50;74.60
18365;DHT22;9309;52.126;11.616;2023-12-20T11:42:41;7.40;74.80
18365;DHT22;9309;52.126;11.616;2023-12-20T11:45:09;7.40;74.90
18365;DHT22;9309;52.126;11.616;2023-12-20T11:47:35;7.40;74.90
18365;DHT22;9309;52.126;11.616;2023-12-20T11:50:02;7.50;75.10
18365;DHT22;9309;52.126;11.616;2023-12-20T11:52:30;7.50;74.60
18365;DHT22;9309;52.126;11.616;2023-12-20T11:54:56;7.60;74.60
18365;DHT22;9309;52.126;11.616;2023-12-20T11:57:24;7.60;75.00
18365;DHT22;9309;52.126;11.616;2023-12-20T11:59:51;7.50;75.20
18365;DHT22;9309;52.126;11.616;2023-12-20T12:02:17;7.60;75.20
18365;DHT22;9309;52.126;11.616;2023-12-20T12:04:44;7.50;76.10
18365;DHT22;9309;52.126;11.616;2023-12-20T12:07:10;7.50;76.40
18365;DHT22;9309;52.126;11.616;2023-12-20T12:09:37;7.50;76.60
18365;DHT22;9309;52.126;11.616;2023-12-20T12:12:04;7.60;76.30
18365;DHT22;9309;52.126;11.616;2023-12-20T12:14:32;7.50;77.20
18365;DHT22;9309;52.126;11.616;2023-12-20T12:16:58;7.30;78.80
18365;DHT22;9309;52.126;11.616;2023-12-20T12:19:26;7.10;79.80
18365;DHT22;9309;52.126;11.616;2023-12-20T12:22:03;7.10;79.80
18365;DHT22;9309;52.126;11.616;2023-12-20T12:24:30;7.00;79.90
18365;DHT22;9309;52.126;11.616;2023-12-20T12:26:57;7.00;79.50
18365;DHT22;9309;52.126;11.616;2023-12-20T12:29:23;7.00;79.70
18365;DHT22;9309;52.126;11.616;2023-12-20T12:31:52;7.00;80.50
18365;DHT22;9309;52.126;11.616;2023-12-20T12:34:18;7.00;80.70
18365;DHT22;9309;52.126;11.616;2023-12-20T12:36:45;7.00;80.60
18365;DHT22;9309;52.126;11.616;2023-12-20T12:39:11;6.90;80.80
18365;DHT22;9309;52.126;11.616;2023-12-20T12:41:40;6.90;81.30
18365;DHT22;9309;52.126;11.616;2023-12-20T12:44:07;6.80;82.20
18365;DHT22;9309;52.126;11.616;2023-12-20T12:46:34;6.80;82.40
18365;DHT22;9309;52.126;11.616;2023-12-20T12:49:02;6.70;82.50
18365;DHT22;9309;52.126;11.616;2023-12-20T12:51:29;6.70;83.40
18365;DHT22;9309;52.126;11.616;2023-12-20T12:53:57;6.70;83.40
18365;DHT22;9309;52.126;11.616;2023-12-20T12:56:23;6.60;84.10
18365;DHT22;9309;52.126;11.616;2023-12-20T12:58:50;6.50;85.10
18365;DHT22;9309;52.126;11.616;2023-12-20T13:01:16;6.50;84.90
18365;DHT22;9309;52.126;11.616;2023-12-20T13:03:43;6.40;85.70
18365;DHT22;9309;52.126;11.616;2023-12-20T13:06:10;6.40;86.10
18365;DHT22;9309;52.126;11.616;2023-12-20T13:08:37;6.40;86.10
18365;DHT22;9309;52.126;11.616;2023-12-20T13:11:03;6.40;86.60
18365;DHT22;9309;52.126;11.616;2023-12-20T13:13:30;6.30;86.60
18365;DHT22;9309;52.126;11.616;2023-12-20T13:15:57;6.30;85.80
18365;DHT22;9309;52.126;11.616;2023-12-20T13:18:23;6.40;85.90
18365;DHT22;9309;52.126;11.616;2023-12-20T13:20:50;6.40;86.00
18365;DHT22;9309;52.126;11.616;2023-12-20T13:23:18;6.40;86.20
18365;DHT22;9309;52.126;11.616;2023-12-20T13:25:44;6.40;86.10
18365;DHT22;9309;52.126;11.616;2023-12-20T13:28:12;6.40;85.50
18365;DHT22;9309;52.126;11.616;2023-12-20T13:30:38;6.50;85.60
18365;DHT22;9309;52.126;11.616;2023-12-20T13:33:05;6.40;85.10
18365;DHT22;9309;52.126;11.616;2023-12-20T13:35:32;6.50;84.80
18365;DHT22;9309;52.126;11.616;2023-12-20T13:37:58;6.50;84.70
18365;DHT22;9309;52.126;11.616;2023-12-20T13:40:26;6.50;83.80
18365;DHT22;9309;52.126;11.616;2023-12-20T13:42:53;6.50;83.60
18365;DHT22;9309;52.126;11.616;2023-12-20T13:45:20;6.60;84.00
18365;DHT22;9309;52.126;11.616;2023-12-20T13:47:47;6.60;83.60
18365;DHT22;9309;52.126;11.616;2023-12-20T13:50:14;6.60;83.50
18365;DHT22;9309;52.126;11.616;2023-12-20T13:52:41;6.60;83.70
18365;DHT22;9309;52.126;11.616;2023-12-20T13:55:08;6.60;83.60
18365;DHT22;9309;52.126;11.616;2023-12-20T13:57:37;6.60;83.50
18365;DHT22;9309;52.126;11.616;2023-12-20T14:00:05;6.50;83.20
18365;DHT22;9309;52.126;11.616;2023-12-20T14:02:37;6.50;82.90
18365;DHT22;9309;52.126;11.616;2023-12-20T14:05:04;6.50;82.30
18365;DHT22;9309;52.126;11.616;2023-12-20T14:07:31;6.60;82.50
18365;DHT22;9309;52.126;11.616;2023-12-20T14:09:58;6.60;81.40
18365;DHT22;9309;52.126;11.616;2023-12-20T14:12:24;6.60;80.60
18365;DHT22;9309;52.126;11.616;2023-12-20T14:14:52;6.50;80.70
18365;DHT22;9309;52.126;11.616;2023-12-20T14:17:21;6.40;80.50
18365;DHT22;9309;52.126;11.616;2023-12-20T14:19:47;6.40;80.60
18365;DHT22;9309;52.126;11.616;2023-12-20T14:22:14;6.30;80.00
18365;DHT22;9309;52.126;11.616;2023-12-20T14:24:42;6.30;79.80
18365;DHT22;9309;52.126;11.616;2023-12-20T14:27:09;6.20;79.20
18365;DHT22;9309;52.126;11.616;2023-12-20T14:29:36;6.10;79.00
18365;DHT22;9309;52.126;11.616;2023-12-20T14:32:04;6.00;79.00
18365;DHT22;9309;52.126;11.616;2023-12-20T14:34:31;6.00;78.50
18365;DHT22;9309;52.126;11.616;2023-12-20T14:36:58;6.00;77.40
18365;DHT22;9309;52.126;11.616;2023-12-20T14:39:24;5.90;77.50
18365;DHT22;9309;52.126;11.616;2023-12-20T14:41:51;5.90;77.60
18365;DHT22;9309;52.126;11.616;2023-12-20T14:44:17;5.90;77.90
18365;DHT22;9309;52.126;11.616;2023-12-20T14:46:44;5.80;77.80
18365;DHT22;9309;52.126;11.616;2023-12-20T14:49:12;5.70;78.50
18365;DHT22;9309;52.126;11.616;2023-12-20T14:51:39;5.60;78.60
18365;DHT22;9309;52.126;11.616;2023-12-20T14:54:06;5.60;78.70
18365;DHT22;9309;52.126;11.616;2023-12-20T14:56:34;5.60;78.40
18365;DHT22;9309;52.126;11.616;2023-12-20T14:59:01;5.60;78.20
18365;DHT22;9309;52.126;11.616;2023-12-20T15:01:27;5.60;77.70
18365;DHT22;9309;52.126;11.616;2023-12-20T15:03:54;5.60;77.80
18365;DHT22;9309;52.126;11.616;2023-12-20T15:06:23;5.70;77.10
18365;DHT22;9309;52.126;11.616;2023-12-20T15:08:51;5.60;77.30
18365;DHT22;9309;52.126;11.616;2023-12-20T15:11:17;5.60;77.40
18365;DHT22;9309;52.126;11.616;2023-12-20T15:13:44;5.60;77.00
18365;DHT22;9309;52.126;11.616;2023-12-20T15:16:12;5.60;76.90
18365;DHT22;9309;52.126;11.616;2023-12-20T15:18:39;5.60;77.00
18365;DHT22;9309;52.126;11.616;2023-12-20T15:21:05;5.60;77.30
18365;DHT22;9309;52.126;11.616;2023-12-20T15:23:34;5.60;77.50
18365;DHT22;9309;52.126;11.616;2023-12-20T15:26:00;5.60;77.70
18365;DHT22;9309;52.126;11.616;2023-12-20T15:28:27;5.50;77.80
18365;DHT22;9309;52.126;11.616;2023-12-20T15:30:54;5.50;77.90
18365;DHT22;9309;52.126;11.616;2023-12-20T15:33:22;5.50;78.10
18365;DHT22;9309;52.126;11.616;2023-12-20T15:35:48;5.50;78.10
18365;DHT22;9309;52.126;11.616;2023-12-20T15:38:15;5.50;78.40
18365;DHT22;9309;52.126;11.616;2023-12-20T15:40:43;5.50;78.70
18365;DHT22;9309;52.126;11.616;2023-12-20T15:43:10;5.50;78.50
18365;DHT22;9309;52.126;11.616;2023-12-20T15:45:36;5.50;78.90